createdAt,value
2024-03-15T00:00:54.549Z,5.80
2024-03-15T00:02:59.745Z,6.15
2024-03-15T00:05:11.164Z,6.15
2024-03-15T00:07:16.856Z,5.38
2024-03-15T00:09:22.556Z,6.00
2024-03-15T00:11:27.720Z,6.53
2024-03-15T00:13:32.914Z,6.03
2024-03-15T00:15:38.675Z,6.68
2024-03-15T00:17:43.822Z,5.63
2024-03-15T00:19:48.850Z,5.53
2024-03-15T00:21:59.549Z,6.18
2024-03-15T00:24:05.716Z,5.55
2024-03-15T00:26:11.025Z,6.05
2024-03-15T00:28:16.322Z,5.63
2024-03-15T00:30:24.125Z,5.45
2024-03-15T00:32:29.722Z,5.70
2024-03-15T00:34:34.783Z,4.85
2024-03-15T00:36:40.043Z,5.47
2024-03-15T00:38:47.695Z,5.40
2024-03-15T00:40:54.699Z,5.03
2024-03-15T00:43:00.267Z,5.43
2024-03-15T00:45:08.138Z,5.00
2024-03-15T00:47:10.968Z,5.15
2024-03-15T00:49:15.875Z,4.85
2024-03-15T00:51:26.777Z,5.45
2024-03-15T00:53:32.668Z,5.03
2024-03-15T00:55:40.236Z,4.72
2024-03-15T00:57:45.136Z,5.00
2024-03-15T00:59:50.048Z,5.55
2024-03-15T01:01:55.062Z,5.18
2024-03-15T01:04:00.074Z,5.63
2024-03-15T01:06:05.161Z,5.50
2024-03-15T01:08:10.556Z,5.35
2024-03-15T01:10:15.660Z,5.22
2024-03-15T01:12:25.939Z,5.10
2024-03-15T01:14:31.677Z,5.50
2024-03-15T01:16:37.518Z,4.93
2024-03-15T01:18:40.208Z,4.75
2024-03-15T01:22:50.094Z,5.55
2024-03-15T01:24:55.038Z,5.95
2024-03-15T01:27:01.031Z,5.63
2024-03-15T01:29:09.671Z,5.38
2024-03-15T01:31:18.108Z,5.07
2024-03-15T01:33:24.721Z,5.57
2024-03-15T01:35:33.990Z,5.63
2024-03-15T01:37:42.505Z,4.93
2024-03-15T01:39:49.331Z,6.00
2024-03-15T01:41:52.227Z,5.00
2024-03-15T01:44:01.272Z,5.03
2024-03-15T01:46:10.149Z,5.78
2024-03-15T01:48:15.948Z,5.07
2024-03-15T01:50:18.749Z,5.43
2024-03-15T01:54:31.175Z,5.75
2024-03-15T01:56:36.117Z,5.32
2024-03-15T01:58:38.593Z,5.68
2024-03-15T02:00:43.919Z,5.88
2024-03-15T02:02:54.054Z,5.78
2024-03-15T02:04:59.058Z,5.45
2024-03-15T02:07:04.026Z,5.45
2024-03-15T02:09:09.254Z,5.75
2024-03-15T02:11:15.154Z,6.25
2024-03-15T02:13:20.179Z,6.32
2024-03-15T02:15:25.211Z,6.20
2024-03-15T02:17:30.808Z,6.93
2024-03-15T02:19:35.697Z,6.22
2024-03-15T02:21:44.788Z,6.70
2024-03-15T02:23:49.791Z,5.93
2024-03-15T02:25:54.848Z,6.63
2024-03-15T02:27:59.829Z,5.43
2024-03-15T02:30:07.319Z,7.03
2024-03-15T02:32:13.402Z,5.75
2024-03-15T02:34:15.831Z,6.10
2024-03-15T02:36:25.692Z,5.70
2024-03-15T02:38:35.248Z,5.68
2024-03-15T02:40:40.089Z,5.63
2024-03-15T02:42:47.872Z,5.65
2024-03-15T02:44:53.345Z,5.80
2024-03-15T02:46:58.264Z,5.40
2024-03-15T02:49:04.924Z,5.60
2024-03-15T02:51:10.010Z,5.10
2024-03-15T02:53:15.754Z,5.07
2024-03-15T02:55:23.639Z,5.13
2024-03-15T02:57:28.634Z,5.28
2024-03-15T02:59:36.044Z,5.32
2024-03-15T03:01:41.077Z,5.75
2024-03-15T03:03:46.500Z,5.30
2024-03-15T03:05:49.046Z,6.10
2024-03-15T03:07:53.936Z,5.55
2024-03-15T03:09:59.092Z,6.78
2024-03-15T03:12:08.662Z,5.50
2024-03-15T03:14:14.189Z,6.43
2024-03-15T03:16:24.428Z,5.30
2024-03-15T03:18:26.907Z,5.80
2024-03-15T03:20:34.464Z,6.10
2024-03-15T03:22:40.704Z,5.07
2024-03-15T03:24:45.818Z,5.50
2024-03-15T03:26:51.586Z,5.32
2024-03-15T03:29:02.194Z,4.88
2024-03-15T03:31:06.613Z,6.10
2024-03-15T03:33:11.737Z,4.95
2024-03-15T03:35:17.084Z,5.00
2024-03-15T03:37:24.786Z,5.93
2024-03-15T03:39:29.892Z,5.60
2024-03-15T03:41:35.063Z,6.35
2024-03-15T03:43:40.548Z,5.10
2024-03-15T03:45:48.650Z,5.20
2024-03-15T03:47:52.075Z,5.00
2024-03-15T03:49:57.134Z,5.68
2024-03-15T03:51:59.522Z,5.45
2024-03-15T03:54:05.001Z,5.50
2024-03-15T03:56:09.920Z,5.13
2024-03-15T03:58:16.781Z,4.93
2024-03-15T04:00:22.702Z,6.13
2024-03-15T04:02:32.776Z,4.90
2024-03-15T04:04:37.775Z,5.18
2024-03-15T04:06:40.343Z,5.43
2024-03-15T04:08:45.363Z,5.70
2024-03-15T04:10:50.651Z,5.45
2024-03-15T04:12:56.678Z,4.53
2024-03-15T04:15:08.219Z,4.53
2024-03-15T04:17:21.667Z,5.80
2024-03-15T04:19:32.558Z,4.90
2024-03-15T04:21:37.416Z,5.35
2024-03-15T04:23:43.959Z,5.28
2024-03-15T04:25:50.369Z,5.38
2024-03-15T04:27:56.036Z,4.75
2024-03-15T04:30:08.806Z,5.22
2024-03-15T04:32:14.128Z,4.80
2024-03-15T04:34:19.381Z,4.78
2024-03-15T04:36:29.546Z,5.35
2024-03-15T04:38:34.717Z,5.00
2024-03-15T04:40:40.082Z,5.22
2024-03-15T04:42:42.808Z,5.30
2024-03-15T04:44:49.241Z,6.75
2024-03-15T04:46:52.278Z,5.85
2024-03-15T04:48:57.858Z,5.65
2024-03-15T04:51:01.850Z,6.45
2024-03-15T04:53:12.217Z,6.10
2024-03-15T04:55:20.304Z,6.03
2024-03-15T04:57:27.199Z,5.25
2024-03-15T04:59:29.747Z,5.40
2024-03-15T05:01:34.837Z,4.90
2024-03-15T05:03:39.856Z,5.15
2024-03-15T05:05:42.507Z,5.30
2024-03-15T05:07:48.523Z,5.93
2024-03-15T05:09:56.738Z,6.43
2024-03-15T05:12:02.291Z,6.32
2024-03-15T05:14:07.266Z,7.00
2024-03-15T05:16:15.759Z,8.15
2024-03-15T05:18:22.216Z,8.20
2024-03-15T05:20:27.246Z,7.90
2024-03-15T05:22:29.814Z,8.57
2024-03-15T05:24:35.071Z,7.00
2024-03-15T05:26:43.029Z,6.93
2024-03-15T05:28:49.761Z,6.05
2024-03-15T05:30:54.985Z,5.78
2024-03-15T05:32:57.589Z,6.00
2024-03-15T05:35:02.916Z,6.72
2024-03-15T05:37:10.976Z,5.50
2024-03-15T05:39:16.630Z,6.57
2024-03-15T05:41:22.566Z,5.80
2024-03-15T05:43:30.132Z,6.35
2024-03-15T05:45:32.711Z,5.40
2024-03-15T05:47:37.660Z,5.30
2024-03-15T05:49:43.170Z,4.78
2024-03-15T05:51:48.222Z,5.32
2024-03-15T05:53:51.004Z,4.78
2024-03-15T05:55:56.339Z,4.78
2024-03-15T05:58:01.414Z,5.22
2024-03-15T06:00:17.354Z,4.40
2024-03-15T06:02:24.409Z,5.15
2024-03-15T06:04:29.627Z,5.35
2024-03-15T06:06:35.543Z,5.35
2024-03-15T06:08:40.610Z,4.93
2024-03-15T06:10:43.063Z,5.30
2024-03-15T06:12:49.125Z,4.70
2024-03-15T06:14:52.282Z,5.65
2024-03-15T06:16:59.909Z,5.07
2024-03-15T06:19:02.765Z,5.90
2024-03-15T06:21:10.314Z,4.78
2024-03-15T06:23:16.466Z,5.07
2024-03-15T06:25:21.428Z,4.10
2024-03-15T06:27:30.142Z,4.47
2024-03-15T06:29:36.075Z,4.07
2024-03-15T06:31:41.596Z,4.90
2024-03-15T06:33:50.528Z,4.88
2024-03-15T06:35:54.222Z,4.85
2024-03-15T06:38:09.163Z,4.32
2024-03-15T06:40:20.374Z,4.00
2024-03-15T06:42:26.043Z,4.05
2024-03-15T06:44:47.126Z,3.83
2024-03-15T06:47:17.143Z,3.50
2024-03-15T06:49:26.440Z,3.55
2024-03-15T06:51:44.131Z,3.08
2024-03-15T06:53:49.235Z,3.08
2024-03-15T06:55:55.330Z,2.88
2024-03-15T06:58:08.842Z,3.38
2024-03-15T07:00:18.219Z,3.20
2024-03-15T07:02:25.528Z,2.60
2024-03-15T07:04:33.856Z,2.65
2024-03-15T07:06:38.999Z,2.42
2024-03-15T07:08:45.885Z,2.92
2024-03-15T07:10:52.522Z,2.92
2024-03-15T07:12:57.521Z,2.55
2024-03-15T07:15:02.543Z,2.70
2024-03-15T07:17:10.550Z,2.90
2024-03-15T07:19:17.123Z,2.78
2024-03-15T07:21:24.951Z,2.67
2024-03-15T07:23:32.949Z,2.50
2024-03-15T07:25:36.458Z,2.35
2024-03-15T07:27:43.387Z,2.95
2024-03-15T07:29:48.530Z,3.22
2024-03-15T07:31:51.082Z,2.58
2024-03-15T07:33:56.229Z,3.15
2024-03-15T07:36:06.444Z,4.03
2024-03-15T07:38:14.356Z,3.13
2024-03-15T07:40:20.290Z,2.88
2024-03-15T07:42:25.865Z,3.33
2024-03-15T07:44:31.491Z,3.08
2024-03-15T07:46:39.484Z,3.47
2024-03-15T07:48:44.878Z,2.45
2024-03-15T07:50:50.285Z,2.90
2024-03-15T07:52:55.321Z,4.05
2024-03-15T07:55:07.536Z,3.42
2024-03-15T07:57:15.339Z,3.17
2024-03-15T07:59:24.003Z,3.55
2024-03-15T08:01:26.608Z,3.60
2024-03-15T08:03:34.100Z,3.25
2024-03-15T08:05:39.908Z,4.10
2024-03-15T08:07:42.774Z,4.10
2024-03-15T08:11:55.892Z,3.72
2024-03-15T08:14:00.960Z,3.47
2024-03-15T08:16:20.403Z,3.97
2024-03-15T08:18:26.116Z,3.47
2024-03-15T08:20:31.244Z,3.75
2024-03-15T08:22:38.522Z,4.03
2024-03-15T08:24:43.945Z,4.22
2024-03-15T08:26:49.018Z,4.05
2024-03-15T08:28:57.511Z,3.80
2024-03-15T08:31:02.648Z,3.75
2024-03-15T08:33:09.560Z,4.03
2024-03-15T08:35:16.076Z,4.28
2024-03-15T08:37:24.214Z,3.80
2024-03-15T08:39:31.368Z,4.38
2024-03-15T08:41:38.296Z,3.60
2024-03-15T08:43:43.425Z,3.53
2024-03-15T08:45:51.718Z,3.53
2024-03-15T08:48:01.318Z,3.72
2024-03-15T08:50:13.256Z,3.60
2024-03-15T08:52:18.326Z,3.35
2024-03-15T08:54:23.745Z,4.30
2024-03-15T08:56:28.832Z,3.80
2024-03-15T08:58:31.208Z,3.38
2024-03-15T09:00:40.018Z,4.03
2024-03-15T09:02:48.034Z,4.15
2024-03-15T09:04:55.465Z,4.03
2024-03-15T09:07:00.646Z,4.43
2024-03-15T09:09:10.502Z,3.72
2024-03-15T09:11:15.555Z,4.28
2024-03-15T09:13:22.742Z,3.72
2024-03-15T09:15:28.546Z,4.32
2024-03-15T09:17:33.957Z,3.65
2024-03-15T09:19:41.921Z,4.10
2024-03-15T09:21:51.587Z,4.97
2024-03-15T09:23:56.789Z,4.18
2024-03-15T09:26:04.326Z,4.50
2024-03-15T09:28:13.854Z,3.90
2024-03-15T09:30:28.208Z,4.13
2024-03-15T09:32:34.158Z,3.60
2024-03-15T09:34:45.312Z,4.55
2024-03-15T09:36:52.800Z,3.30
2024-03-15T09:38:58.242Z,3.40
2024-03-15T09:41:00.867Z,2.47
2024-03-15T09:43:06.178Z,2.20
2024-03-15T09:45:12.358Z,2.63
2024-03-15T09:47:18.703Z,2.30
2024-03-15T09:49:24.945Z,2.00
2024-03-15T09:51:33.396Z,2.65
2024-03-15T09:53:38.480Z,2.22
2024-03-15T09:55:44.208Z,2.10
2024-03-15T09:57:50.747Z,2.80
2024-03-15T09:59:56.584Z,3.17
2024-03-15T10:02:02.294Z,3.22
2024-03-15T10:04:13.218Z,3.17
2024-03-15T10:06:21.613Z,3.72
2024-03-15T10:08:32.720Z,3.45
2024-03-15T10:10:35.572Z,2.63
2024-03-15T10:12:41.738Z,3.28
2024-03-15T10:14:44.513Z,2.70
2024-03-15T10:16:49.669Z,2.92
2024-03-15T10:18:54.794Z,2.92
2024-03-15T10:20:58.086Z,3.50
2024-03-15T10:23:03.632Z,3.00
2024-03-15T10:25:21.395Z,2.53
2024-03-15T10:27:27.830Z,2.70
2024-03-15T10:29:32.920Z,2.35
2024-03-15T10:31:36.096Z,1.92
2024-03-15T10:33:41.242Z,2.35
2024-03-15T10:35:50.068Z,2.33
2024-03-15T10:37:55.931Z,1.98
2024-03-15T10:40:01.249Z,2.45
2024-03-15T10:42:17.876Z,2.50
2024-03-15T10:44:23.844Z,2.53
2024-03-15T10:46:29.157Z,2.35
2024-03-15T10:48:34.748Z,2.40
2024-03-15T10:50:43.862Z,2.63
2024-03-15T10:52:52.968Z,2.10
2024-03-15T10:54:59.336Z,2.40
2024-03-15T10:57:07.309Z,3.15
2024-03-15T10:59:12.728Z,2.70
2024-03-15T11:01:20.158Z,2.58
2024-03-15T11:03:32.111Z,3.00
2024-03-15T11:05:37.778Z,2.10
2024-03-15T11:07:43.211Z,2.75
2024-03-15T11:09:50.301Z,2.33
2024-03-15T11:12:06.145Z,2.70
2024-03-15T11:14:28.795Z,2.63
2024-03-15T11:16:35.690Z,2.40
2024-03-15T11:18:41.425Z,3.58
2024-03-15T11:20:48.279Z,2.58
2024-03-15T11:22:58.340Z,2.50
2024-03-15T11:25:04.586Z,2.35
2024-03-15T11:27:07.034Z,2.25
2024-03-15T11:29:22.423Z,2.10
2024-03-15T11:31:30.079Z,2.20
2024-03-15T11:33:36.636Z,1.98
2024-03-15T11:35:45.351Z,2.00
2024-03-15T11:37:57.551Z,1.70
2024-03-15T11:40:04.642Z,2.20
2024-03-15T11:42:08.954Z,2.42
2024-03-15T11:44:14.077Z,1.50
2024-03-15T11:46:23.791Z,1.85
2024-03-15T11:48:28.945Z,1.70
2024-03-15T11:50:34.023Z,1.50
2024-03-15T11:52:36.581Z,1.80
2024-03-15T11:54:41.819Z,1.90
2024-03-15T11:56:47.648Z,1.50
2024-03-15T11:58:53.351Z,1.88
2024-03-15T12:00:59.976Z,1.88
2024-03-15T12:03:12.029Z,1.77
2024-03-15T12:05:17.996Z,2.00
2024-03-15T12:07:24.700Z,2.15
2024-03-15T12:09:29.678Z,2.15
2024-03-15T12:11:41.344Z,2.20
2024-03-15T12:13:55.249Z,2.25
2024-03-15T12:16:02.631Z,2.92
2024-03-15T12:18:19.264Z,2.15
2024-03-15T12:20:22.701Z,2.55
2024-03-15T12:22:30.841Z,2.13
2024-03-15T12:24:35.920Z,2.25
2024-03-15T12:26:41.577Z,2.42
2024-03-15T12:28:48.437Z,3.15
2024-03-15T12:30:56.091Z,2.40
2024-03-15T12:33:01.195Z,2.50
2024-03-15T12:35:09.993Z,2.10
2024-03-15T12:37:14.961Z,2.65
2024-03-15T12:39:20.400Z,2.80
2024-03-15T12:41:25.356Z,2.40
2024-03-15T12:43:30.547Z,2.60
2024-03-15T12:45:35.497Z,2.50
2024-03-15T12:47:42.690Z,2.72
2024-03-15T12:49:47.647Z,2.25
2024-03-15T12:51:55.449Z,2.17
2024-03-15T12:54:00.592Z,2.25
2024-03-15T12:56:06.168Z,2.97
2024-03-15T12:58:11.951Z,2.55
2024-03-15T13:00:19.056Z,3.15
2024-03-15T13:02:24.505Z,3.70
2024-03-15T13:04:29.747Z,4.22
2024-03-15T13:06:35.198Z,3.28
2024-03-15T13:08:42.882Z,3.85
2024-03-15T13:10:49.430Z,3.50
2024-03-15T13:12:53.830Z,3.42
2024-03-15T13:15:00.279Z,3.30
2024-03-15T13:17:08.673Z,3.33
2024-03-15T13:19:15.055Z,2.80
2024-03-15T13:21:20.743Z,3.38
2024-03-15T13:23:28.910Z,2.90
2024-03-15T13:25:38.319Z,3.53
2024-03-15T13:27:43.977Z,2.78
2024-03-15T13:29:48.996Z,3.13
2024-03-15T13:31:54.242Z,2.88
2024-03-15T13:33:59.920Z,2.83
2024-03-15T13:36:05.076Z,2.85
2024-03-15T13:38:11.777Z,2.70
2024-03-15T13:40:21.527Z,2.58
2024-03-15T13:42:43.028Z,2.40
2024-03-15T13:44:48.374Z,2.60
2024-03-15T13:46:53.602Z,2.67
2024-03-15T13:49:06.499Z,2.38
2024-03-15T13:51:14.761Z,2.47
2024-03-15T13:53:20.116Z,1.95
2024-03-15T13:55:24.544Z,2.55
2024-03-15T13:57:29.719Z,2.30
2024-03-15T13:59:37.404Z,2.17
2024-03-15T14:01:46.843Z,2.50
2024-03-15T14:03:54.407Z,2.00
2024-03-15T14:05:58.258Z,2.25
2024-03-15T14:08:03.584Z,2.60
2024-03-15T14:10:08.856Z,2.30
2024-03-15T14:12:14.284Z,2.22
2024-03-15T14:14:19.842Z,2.95
2024-03-15T14:16:27.910Z,2.42
2024-03-15T14:18:33.881Z,2.28
2024-03-15T14:20:42.985Z,2.88
2024-03-15T14:22:48.701Z,2.47
2024-03-15T14:24:53.418Z,2.28
2024-03-15T14:27:05.418Z,3.08
2024-03-15T14:29:11.416Z,2.80
2024-03-15T14:31:17.045Z,2.28
2024-03-15T14:33:25.036Z,2.60
2024-03-15T14:35:30.456Z,1.90
2024-03-15T14:37:32.971Z,3.50
2024-03-15T14:39:40.490Z,3.05
2024-03-15T14:41:45.551Z,2.05
2024-03-15T14:43:50.595Z,2.70
2024-03-15T14:45:57.296Z,2.75
2024-03-15T14:48:07.485Z,2.78
2024-03-15T14:50:26.465Z,2.35
2024-03-15T14:52:29.231Z,2.78
2024-03-15T14:56:39.782Z,2.83
2024-03-15T14:58:44.959Z,3.10
2024-03-15T15:00:51.164Z,2.47
2024-03-15T15:02:57.066Z,3.10
2024-03-15T15:05:10.933Z,2.97
2024-03-15T15:07:18.821Z,2.30
2024-03-15T15:09:26.007Z,2.92
2024-03-15T15:11:31.471Z,2.58
2024-03-15T15:13:37.373Z,2.83
2024-03-15T15:15:43.412Z,3.13
2024-03-15T15:17:47.020Z,2.70
2024-03-15T15:19:52.352Z,2.60
2024-03-15T15:21:54.647Z,2.55
2024-03-15T15:24:02.665Z,3.83
2024-03-15T15:26:10.671Z,3.22
2024-03-15T15:28:16.102Z,3.33
2024-03-15T15:30:26.020Z,3.47
2024-03-15T15:32:31.078Z,2.97
2024-03-15T15:34:40.104Z,2.50
2024-03-15T15:36:45.365Z,3.38
2024-03-15T15:38:50.992Z,3.17
2024-03-15T15:40:58.962Z,3.83
2024-03-15T15:43:07.360Z,3.28
2024-03-15T15:45:14.560Z,3.25
2024-03-15T15:47:17.183Z,2.83
2024-03-15T15:49:25.390Z,3.13
2024-03-15T15:51:31.005Z,4.13
2024-03-15T15:53:35.963Z,2.70
2024-03-15T15:55:42.652Z,3.15
2024-03-15T15:57:51.557Z,4.22
2024-03-15T15:59:55.930Z,2.92
2024-03-15T16:02:03.774Z,3.63
2024-03-15T16:04:08.955Z,3.15
2024-03-15T16:06:14.130Z,2.75
2024-03-15T16:08:19.520Z,3.58
2024-03-15T16:10:25.239Z,2.95
2024-03-15T16:12:30.576Z,2.47
2024-03-15T16:14:38.312Z,3.13
2024-03-15T16:16:43.850Z,2.80
2024-03-15T16:18:48.949Z,2.90
2024-03-15T16:20:51.501Z,2.50
2024-03-15T16:22:59.698Z,3.47
2024-03-15T16:25:07.345Z,3.55
2024-03-15T16:27:13.052Z,2.90
2024-03-15T16:29:18.261Z,3.50
2024-03-15T16:31:29.051Z,3.33
2024-03-15T16:33:34.593Z,2.92
2024-03-15T16:35:39.802Z,2.95
2024-03-15T16:37:42.768Z,3.17
2024-03-15T16:39:48.306Z,3.45
2024-03-15T16:41:54.511Z,4.07
2024-03-15T16:44:00.389Z,3.60
2024-03-15T16:46:29.819Z,3.38
2024-03-15T16:48:39.381Z,3.70
2024-03-15T16:50:42.032Z,3.63
2024-03-15T16:52:48.920Z,4.43
2024-03-15T16:54:53.812Z,3.95
2024-03-15T16:56:59.038Z,3.45
2024-03-15T16:59:05.798Z,3.00
2024-03-15T17:01:11.163Z,4.03
2024-03-15T17:03:19.131Z,3.05
2024-03-15T17:05:24.491Z,4.15
2024-03-15T17:07:29.645Z,3.92
2024-03-15T17:09:34.706Z,3.42
2024-03-15T17:11:40.002Z,3.60
2024-03-15T17:13:44.925Z,4.40
2024-03-15T17:15:54.099Z,3.67
2024-03-15T17:18:00.973Z,3.25
2024-03-15T17:20:11.372Z,3.03
2024-03-15T17:22:16.737Z,3.63
2024-03-15T17:24:22.450Z,3.10
2024-03-15T17:26:28.309Z,4.53
2024-03-15T17:28:33.353Z,3.30
2024-03-15T17:30:38.687Z,3.45
2024-03-15T17:32:45.320Z,3.20
2024-03-15T17:34:50.559Z,3.67
2024-03-15T17:36:55.851Z,2.75
2024-03-15T17:39:01.063Z,3.92
2024-03-15T17:41:08.600Z,3.58
2024-03-15T17:43:13.673Z,3.75
2024-03-15T17:45:20.825Z,3.33
2024-03-15T17:47:29.212Z,3.33
2024-03-15T17:49:34.357Z,3.00
2024-03-15T17:51:39.561Z,3.80
2024-03-15T17:53:47.765Z,2.90
2024-03-15T17:55:54.158Z,3.80
2024-03-15T17:57:59.720Z,3.85
2024-03-15T18:00:14.088Z,3.05
2024-03-15T18:02:19.775Z,3.55
2024-03-15T18:04:24.797Z,3.63
2024-03-15T18:06:30.509Z,3.20
2024-03-15T18:08:35.706Z,3.72
2024-03-15T18:10:43.670Z,3.00
2024-03-15T18:12:49.071Z,3.70
2024-03-15T18:14:51.710Z,3.67
2024-03-15T18:16:57.350Z,3.25
2024-03-15T18:19:04.356Z,4.28
2024-03-15T18:21:11.299Z,4.07
2024-03-15T18:23:18.597Z,4.75
2024-03-15T18:25:24.767Z,3.38
2024-03-15T18:27:29.851Z,3.33
2024-03-15T18:29:34.922Z,4.03
2024-03-15T18:31:40.295Z,3.13
2024-03-15T18:33:45.834Z,3.63
2024-03-15T18:35:51.146Z,4.60
2024-03-15T18:37:59.263Z,2.97
2024-03-15T18:40:04.504Z,3.75
2024-03-15T18:42:12.085Z,4.03
2024-03-15T18:44:17.307Z,3.83
2024-03-15T18:46:22.752Z,3.05
2024-03-15T18:48:30.383Z,3.15
2024-03-15T18:50:36.916Z,3.50
2024-03-15T18:52:40.096Z,2.42
2024-03-15T18:54:50.046Z,2.00
2024-03-15T18:56:56.046Z,3.22
2024-03-15T18:59:01.281Z,2.83
2024-03-15T19:01:11.400Z,3.63
2024-03-15T19:03:16.861Z,2.42
2024-03-15T19:05:19.608Z,3.05
2024-03-15T19:09:30.122Z,2.55
2024-03-15T19:11:35.310Z,2.85
2024-03-15T19:13:40.406Z,4.38
2024-03-15T19:15:45.556Z,3.50
2024-03-15T19:17:54.429Z,2.85
2024-03-15T19:20:00.166Z,2.88
2024-03-15T19:22:05.327Z,2.42
2024-03-15T19:24:10.616Z,3.22
2024-03-15T19:26:18.945Z,3.30
2024-03-15T19:28:27.564Z,3.72
2024-03-15T19:30:33.954Z,3.88
2024-03-15T19:32:39.225Z,2.42
2024-03-15T19:34:47.669Z,2.92
2024-03-15T19:36:54.467Z,3.60
2024-03-15T19:38:59.681Z,4.45
2024-03-15T19:41:12.163Z,3.00
2024-03-15T19:43:22.269Z,2.35
2024-03-15T19:45:28.322Z,3.03
2024-03-15T19:47:33.282Z,2.92
2024-03-15T19:49:39.022Z,4.18
2024-03-15T19:51:46.689Z,3.25
2024-03-15T19:53:51.782Z,3.05
2024-03-15T19:55:55.593Z,2.83
2024-03-15T19:58:01.763Z,3.15
2024-03-15T20:00:12.176Z,3.33
2024-03-15T20:02:20.218Z,3.35
2024-03-15T20:04:27.312Z,3.13
2024-03-15T20:06:32.946Z,3.45
2024-03-15T20:08:40.963Z,3.38
2024-03-15T20:10:46.105Z,3.00
2024-03-15T20:12:51.991Z,3.83
2024-03-15T20:14:58.864Z,3.92
2024-03-15T20:17:01.204Z,3.50
2024-03-15T20:19:22.721Z,3.88
2024-03-15T20:21:28.163Z,4.07
2024-03-15T20:23:33.114Z,3.65
2024-03-15T20:25:41.142Z,4.25
2024-03-15T20:27:46.328Z,3.08
2024-03-15T20:29:54.609Z,3.10
2024-03-15T20:32:02.790Z,2.70
2024-03-15T20:34:11.355Z,3.53
2024-03-15T20:36:16.619Z,3.63
2024-03-15T20:38:23.294Z,3.80
2024-03-15T20:40:28.964Z,4.07
2024-03-15T20:42:39.163Z,4.78
2024-03-15T20:44:44.777Z,4.03
2024-03-15T20:46:50.065Z,3.15
2024-03-15T20:48:58.179Z,3.25
2024-03-15T20:51:05.733Z,3.35
2024-03-15T20:53:15.742Z,3.58
2024-03-15T20:55:24.880Z,3.88
2024-03-15T20:57:48.926Z,3.80
2024-03-15T20:59:59.280Z,3.30
2024-03-15T21:04:34.746Z,2.50
2024-03-15T21:06:42.572Z,2.90
2024-03-15T21:08:54.140Z,2.92
2024-03-15T21:10:59.228Z,3.47
2024-03-15T21:13:04.952Z,3.47
2024-03-15T21:15:20.938Z,3.72
2024-03-15T21:17:26.652Z,3.22
2024-03-15T21:19:32.484Z,2.92
2024-03-15T21:21:39.407Z,3.40
2024-03-15T21:23:44.709Z,4.47
2024-03-15T21:25:54.438Z,3.15
2024-03-15T21:28:00.462Z,4.50
2024-03-15T21:30:07.475Z,3.70
2024-03-15T21:32:12.943Z,3.72
2024-03-15T21:34:21.095Z,4.32
2024-03-15T21:36:31.690Z,4.10
2024-03-15T21:38:36.836Z,3.30
2024-03-15T21:40:41.959Z,3.58
2024-03-15T21:42:49.024Z,2.35
2024-03-15T21:44:54.112Z,3.47
2024-03-15T21:46:56.439Z,2.75
2024-03-15T21:49:06.413Z,3.05
2024-03-15T21:51:15.528Z,3.45
2024-03-15T21:53:24.911Z,3.40
2024-03-15T21:55:29.861Z,3.90
2024-03-15T21:57:35.806Z,3.42
2024-03-15T21:59:45.358Z,2.78
2024-03-15T22:01:50.493Z,2.88
2024-03-15T22:03:59.030Z,3.65
2024-03-15T22:06:07.825Z,2.92
2024-03-15T22:08:15.596Z,3.15
2024-03-15T22:10:23.757Z,3.72
2024-03-15T22:12:28.748Z,3.38
2024-03-15T22:14:31.206Z,3.97
2024-03-15T22:16:37.107Z,3.88
2024-03-15T22:18:43.416Z,3.67
2024-03-15T22:20:53.463Z,3.25
2024-03-15T22:23:03.535Z,3.42
2024-03-15T22:25:19.612Z,3.67
2024-03-15T22:27:29.024Z,3.22
2024-03-15T22:29:34.200Z,3.38
2024-03-15T22:31:39.232Z,3.35
2024-03-15T22:33:44.500Z,3.00
2024-03-15T22:35:49.556Z,3.88
2024-03-15T22:37:51.862Z,3.30
2024-03-15T22:39:59.688Z,3.40
2024-03-15T22:42:04.953Z,3.08
2024-03-15T22:44:09.913Z,4.22
2024-03-15T22:46:16.710Z,3.38
2024-03-15T22:48:24.256Z,4.60
2024-03-15T22:50:29.097Z,3.85
2024-03-15T22:52:31.494Z,4.20
2024-03-15T22:54:39.193Z,4.10
2024-03-15T22:56:47.111Z,4.45
2024-03-15T22:58:53.372Z,3.72
2024-03-15T23:01:00.694Z,3.78
2024-03-15T23:03:07.868Z,4.10
2024-03-15T23:05:15.840Z,4.43
2024-03-15T23:07:23.675Z,3.45
2024-03-15T23:09:29.168Z,4.53
2024-03-15T23:11:35.090Z,3.50
2024-03-15T23:13:42.757Z,3.58
2024-03-15T23:15:48.571Z,4.10
2024-03-15T23:17:54.218Z,4.38
2024-03-15T23:19:59.269Z,3.22
2024-03-15T23:22:05.735Z,3.78
2024-03-15T23:24:12.323Z,4.55
2024-03-15T23:26:18.508Z,2.97
2024-03-15T23:28:26.997Z,4.43
2024-03-15T23:30:35.799Z,3.38
2024-03-15T23:32:41.161Z,2.47
2024-03-15T23:34:46.403Z,3.40
2024-03-15T23:36:54.048Z,2.97
2024-03-15T23:38:59.092Z,3.53
2024-03-15T23:41:05.280Z,3.22
2024-03-15T23:43:13.824Z,3.72
2024-03-15T23:45:18.912Z,3.28
2024-03-15T23:47:29.709Z,2.90
2024-03-15T23:49:34.683Z,3.95
2024-03-15T23:51:39.884Z,2.92
2024-03-15T23:53:44.899Z,3.60
2024-03-15T23:55:50.407Z,3.20
2024-03-15T23:57:55.461Z,3.38
